sensor_id;sensor_type;location;lat;lon;timestamp;P1;P2;P0
76101;PMS7003;64830;46.910;6.354;2023-02-23T00:02:31;12.75;11.50;7.75
76101;PMS7003;64830;46.910;6.354;2023-02-23T00:04:56;10.25;8.00;6.50
76101;PMS7003;64830;46.910;6.354;2023-02-23T00:07:22;15.00;8.75;7.00
76101;PMS7003;64830;46.910;6.354;2023-02-23T00:09:56;12.75;11.75;8.25
76101;PMS7003;64830;46.910;6.354;2023-02-23T00:12:25;10.75;9.50;7.50
76101;PMS7003;64830;46.910;6.354;2023-02-23T00:14:50;12.75;11.00;7.25
76101;PMS7003;64830;46.910;6.354;2023-02-23T00:17:16;13.50;12.75;7.75
76101;PMS7003;64830;46.910;6.354;2023-02-23T00:19:41;12.25;12.25;8.00
76101;PMS7003;64830;46.910;6.354;2023-02-23T00:22:25;13.00;11.50;8.50
76101;PMS7003;64830;46.910;6.354;2023-02-23T00:24:56;16.25;14.25;10.00
76101;PMS7003;64830;46.910;6.354;2023-02-23T00:27:23;16.75;15.50;9.25
76101;PMS7003;64830;46.910;6.354;2023-02-23T00:29:58;14.25;13.50;7.75
76101;PMS7003;64830;46.910;6.354;2023-02-23T00:32:38;14.75;10.25;6.50
76101;PMS7003;64830;46.910;6.354;2023-02-23T00:35:04;12.25;12.00;9.25
76101;PMS7003;64830;46.910;6.354;2023-02-23T00:37:38;16.25;15.00;9.75
76101;PMS7003;64830;46.910;6.354;2023-02-23T00:40:03;19.25;15.50;8.25
76101;PMS7003;64830;46.910;6.354;2023-02-23T00:42:46;12.00;11.50;8.25
76101;PMS7003;64830;46.910;6.354;2023-02-23T00:45:22;17.75;11.75;7.00
76101;PMS7003;64830;46.910;6.354;2023-02-23T00:48:02;12.00;11.00;8.00
76101;PMS7003;64830;46.910;6.354;2023-02-23T00:53:35;10.50;9.75;7.50
76101;PMS7003;64830;46.910;6.354;2023-02-23T00:56:07;12.00;12.00;8.00
76101;PMS7003;64830;46.910;6.354;2023-02-23T00:58:49;17.50;14.25;11.00
76101;PMS7003;64830;46.910;6.354;2023-02-23T01:01:15;17.25;16.50;10.75
76101;PMS7003;64830;46.910;6.354;2023-02-23T01:03:47;25.00;14.75;9.50
76101;PMS7003;64830;46.910;6.354;2023-02-23T01:06:14;12.75;11.75;7.00
76101;PMS7003;64830;46.910;6.354;2023-02-23T01:08:55;13.75;12.00;7.00
76101;PMS7003;64830;46.910;6.354;2023-02-23T01:11:21;12.50;11.00;7.00
76101;PMS7003;64830;46.910;6.354;2023-02-23T01:14:02;14.25;12.75;8.00
76101;PMS7003;64830;46.910;6.354;2023-02-23T01:16:28;16.00;12.50;7.00
76101;PMS7003;64830;46.910;6.354;2023-02-23T01:19:03;17.25;13.00;6.75
76101;PMS7003;64830;46.910;6.354;2023-02-23T01:21:35;11.75;11.25;7.50
76101;PMS7003;64830;46.910;6.354;2023-02-23T01:24:09;12.25;11.00;8.00
76101;PMS7003;64830;46.910;6.354;2023-02-23T01:26:50;9.50;8.50;6.50
76101;PMS7003;64830;46.910;6.354;2023-02-23T01:29:15;13.25;10.25;6.00
76101;PMS7003;64830;46.910;6.354;2023-02-23T01:32:08;5.50;4.00;3.00
76101;PMS7003;64830;46.910;6.354;2023-02-23T01:34:42;9.25;7.75;6.25
76101;PMS7003;64830;46.910;6.354;2023-02-23T01:37:16;10.75;9.00;7.00
76101;PMS7003;64830;46.910;6.354;2023-02-23T01:39:57;11.00;10.25;6.25
76101;PMS7003;64830;46.910;6.354;2023-02-23T01:42:22;13.00;8.50;6.00
76101;PMS7003;64830;46.910;6.354;2023-02-23T01:47:49;12.00;8.00;7.00
76101;PMS7003;64830;46.910;6.354;2023-02-23T01:53:45;11.00;10.75;6.00
76101;PMS7003;64830;46.910;6.354;2023-02-23T01:56:43;11.50;10.50;6.50
76101;PMS7003;64830;46.910;6.354;2023-02-23T01:59:26;12.50;8.50;6.50
76101;PMS7003;64830;46.910;6.354;2023-02-23T02:02:10;14.00;11.50;6.50
76101;PMS7003;64830;46.910;6.354;2023-02-23T02:04:43;12.75;9.00;7.00
76101;PMS7003;64830;46.910;6.354;2023-02-23T02:07:27;12.00;10.00;7.75
76101;PMS7003;64830;46.910;6.354;2023-02-23T02:10:09;10.75;8.75;7.25
76101;PMS7003;64830;46.910;6.354;2023-02-23T02:13:18;12.75;11.25;6.25
76101;PMS7003;64830;46.910;6.354;2023-02-23T02:26:52;14.50;13.50;7.25
76101;PMS7003;64830;46.910;6.354;2023-02-23T02:41:27;11.00;9.50;7.25
76101;PMS7003;64830;46.910;6.354;2023-02-23T02:56:05;17.00;11.25;8.00
76101;PMS7003;64830;46.910;6.354;2023-02-23T02:58:32;12.50;11.75;8.50
76101;PMS7003;64830;46.910;6.354;2023-02-23T03:01:15;13.75;9.75;8.00
76101;PMS7003;64830;46.910;6.354;2023-02-23T03:04:24;14.00;11.25;8.00
76101;PMS7003;64830;46.910;6.354;2023-02-23T03:07:19;17.00;15.75;10.00
76101;PMS7003;64830;46.910;6.354;2023-02-23T03:40:49;11.25;9.00;7.50
76101;PMS7003;64830;46.910;6.354;2023-02-23T03:43:44;11.25;11.25;7.00
76101;PMS7003;64830;46.910;6.354;2023-02-23T03:46:44;10.75;10.50;6.75
76101;PMS7003;64830;46.910;6.354;2023-02-23T03:49:37;16.25;12.00;7.75
76101;PMS7003;64830;46.910;6.354;2023-02-23T03:55:56;12.50;9.75;7.25
76101;PMS7003;64830;46.910;6.354;2023-02-23T03:58:56;12.00;10.00;7.00
76101;PMS7003;64830;46.910;6.354;2023-02-23T04:01:57;13.00;11.00;7.00
76101;PMS7003;64830;46.910;6.354;2023-02-23T04:04:48;12.00;9.25;8.75
76101;PMS7003;64830;46.910;6.354;2023-02-23T04:07:39;12.75;12.75;8.50
76101;PMS7003;64830;46.910;6.354;2023-02-23T04:10:30;12.00;10.75;7.75
76101;PMS7003;64830;46.910;6.354;2023-02-23T04:13:23;10.50;10.25;7.00
76101;PMS7003;64830;46.910;6.354;2023-02-23T04:16:00;17.00;12.25;7.50
76101;PMS7003;64830;46.910;6.354;2023-02-23T04:18:32;11.00;11.00;8.00
76101;PMS7003;64830;46.910;6.354;2023-02-23T04:21:13;12.25;9.75;7.75
76101;PMS7003;64830;46.910;6.354;2023-02-23T04:23:39;13.25;13.00;8.00
76101;PMS7003;64830;46.910;6.354;2023-02-23T04:26:12;16.25;12.00;8.00
76101;PMS7003;64830;46.910;6.354;2023-02-23T04:28:37;16.25;12.25;7.50
76101;PMS7003;64830;46.910;6.354;2023-02-23T04:31:03;16.00;12.00;7.25
76101;PMS7003;64830;46.910;6.354;2023-02-23T04:33:54;11.50;10.00;6.00
76101;PMS7003;64830;46.910;6.354;2023-02-23T04:36:19;9.25;9.25;6.75
76101;PMS7003;64830;46.910;6.354;2023-02-23T04:38:51;11.50;9.25;6.25
76101;PMS7003;64830;46.910;6.354;2023-02-23T04:41:18;12.75;10.75;7.25
76101;PMS7003;64830;46.910;6.354;2023-02-23T04:43:44;13.50;12.00;8.25
76101;PMS7003;64830;46.910;6.354;2023-02-23T04:46:09;13.75;11.75;7.00
76101;PMS7003;64830;46.910;6.354;2023-02-23T04:48:34;11.25;8.00;6.00
76101;PMS7003;64830;46.910;6.354;2023-02-23T04:51:09;7.50;7.25;3.25
76101;PMS7003;64830;46.910;6.354;2023-02-23T04:53:57;13.75;13.00;10.25
76101;PMS7003;64830;46.910;6.354;2023-02-23T04:56:23;11.25;11.25;7.50
76101;PMS7003;64830;46.910;6.354;2023-02-23T04:58:54;9.50;8.00;6.00
76101;PMS7003;64830;46.910;6.354;2023-02-23T05:01:20;7.25;7.25;5.00
76101;PMS7003;64830;46.910;6.354;2023-02-23T05:03:46;9.75;7.00;3.75
76101;PMS7003;64830;46.910;6.354;2023-02-23T05:06:27;12.25;11.25;8.00
76101;PMS7003;64830;46.910;6.354;2023-02-23T05:08:52;8.25;7.25;3.75
76101;PMS7003;64830;46.910;6.354;2023-02-23T05:11:18;12.75;9.00;7.00
76101;PMS7003;64830;46.910;6.354;2023-02-23T05:13:49;9.00;7.00;4.50
76101;PMS7003;64830;46.910;6.354;2023-02-23T05:16:16;7.00;7.00;5.00
76101;PMS7003;64830;46.910;6.354;2023-02-23T05:18:50;10.50;7.75;4.25
76101;PMS7003;64830;46.910;6.354;2023-02-23T05:21:22;5.50;3.00;3.00
76101;PMS7003;64830;46.910;6.354;2023-02-23T05:23:47;6.00;6.00;3.00
76101;PMS7003;64830;46.910;6.354;2023-02-23T05:26:13;4.25;3.00;2.00
76101;PMS7003;64830;46.910;6.354;2023-02-23T05:28:39;3.25;3.25;2.00
76101;PMS7003;64830;46.910;6.354;2023-02-23T05:34:08;5.75;5.75;3.50
76101;PMS7003;64830;46.910;6.354;2023-02-23T05:36:39;9.00;5.75;3.00
76101;PMS7003;64830;46.910;6.354;2023-02-23T05:39:05;2.50;2.50;2.00
76101;PMS7003;64830;46.910;6.354;2023-02-23T05:41:30;3.75;2.50;2.00
76101;PMS7003;64830;46.910;6.354;2023-02-23T05:43:55;5.50;3.00;2.00
76101;PMS7003;64830;46.910;6.354;2023-02-23T05:46:30;4.75;4.25;2.50
76101;PMS7003;64830;46.910;6.354;2023-02-23T05:49:01;6.00;6.00;4.25
76101;PMS7003;64830;46.910;6.354;2023-02-23T05:51:27;6.00;4.00;3.00
76101;PMS7003;64830;46.910;6.354;2023-02-23T05:53:54;3.00;3.00;2.25
76101;PMS7003;64830;46.910;6.354;2023-02-23T05:56:20;3.75;3.75;3.50
76101;PMS7003;64830;46.910;6.354;2023-02-23T05:58:55;7.25;6.00;4.00
76101;PMS7003;64830;46.910;6.354;2023-02-23T06:01:34;4.25;3.00;2.75
76101;PMS7003;64830;46.910;6.354;2023-02-23T06:03:59;6.00;6.00;3.25
76101;PMS7003;64830;46.910;6.354;2023-02-23T06:06:28;6.00;6.00;4.25
76101;PMS7003;64830;46.910;6.354;2023-02-23T06:08:57;8.75;7.00;4.25
76101;PMS7003;64830;46.910;6.354;2023-02-23T06:11:22;3.75;3.75;3.00
76101;PMS7003;64830;46.910;6.354;2023-02-23T06:13:51;8.00;8.00;6.00
76101;PMS7003;64830;46.910;6.354;2023-02-23T06:19:20;7.75;6.25;5.50
76101;PMS7003;64830;46.910;6.354;2023-02-23T06:21:48;8.00;5.00;3.75
76101;PMS7003;64830;46.910;6.354;2023-02-23T06:24:14;6.75;6.75;5.50
76101;PMS7003;64830;46.910;6.354;2023-02-23T06:26:42;6.75;6.25;3.25
76101;PMS7003;64830;46.910;6.354;2023-02-23T06:29:11;7.00;7.00;3.75
76101;PMS7003;64830;46.910;6.354;2023-02-23T06:31:36;9.25;8.00;6.00
76101;PMS7003;64830;46.910;6.354;2023-02-23T06:34:05;8.50;8.50;7.00
76101;PMS7003;64830;46.910;6.354;2023-02-23T06:36:30;10.25;7.00;6.00
76101;PMS7003;64830;46.910;6.354;2023-02-23T06:38:56;11.75;10.00;7.50
76101;PMS7003;64830;46.910;6.354;2023-02-23T06:47:49;10.25;9.75;7.00
76101;PMS7003;64830;46.910;6.354;2023-02-23T06:57:20;8.00;7.25;6.50
76101;PMS7003;64830;46.910;6.354;2023-02-23T06:59:45;12.75;12.75;7.75
76101;PMS7003;64830;46.910;6.354;2023-02-23T07:02:11;21.50;20.00;15.00
76101;PMS7003;64830;46.910;6.354;2023-02-23T07:04:37;16.75;14.00;9.50
76101;PMS7003;64830;46.910;6.354;2023-02-23T07:07:03;13.00;11.75;9.25
76101;PMS7003;64830;46.910;6.354;2023-02-23T07:09:29;13.25;12.75;9.00
76101;PMS7003;64830;46.910;6.354;2023-02-23T07:12:08;10.00;9.25;6.75
76101;PMS7003;64830;46.910;6.354;2023-02-23T07:15:06;15.25;11.50;8.00
76101;PMS7003;64830;46.910;6.354;2023-02-23T07:17:36;15.25;15.25;11.00
76101;PMS7003;64830;46.910;6.354;2023-02-23T07:20:12;21.00;18.25;12.00
76101;PMS7003;64830;46.910;6.354;2023-02-23T07:22:49;15.75;14.25;11.00
76101;PMS7003;64830;46.910;6.354;2023-02-23T07:25:32;16.00;15.75;11.00
76101;PMS7003;64830;46.910;6.354;2023-02-23T07:28:38;15.75;15.75;10.75
76101;PMS7003;64830;46.910;6.354;2023-02-23T07:34:23;18.00;17.00;11.50
76101;PMS7003;64830;46.910;6.354;2023-02-23T07:40:32;12.00;8.25;7.75
76101;PMS7003;64830;46.910;6.354;2023-02-23T07:49:43;9.25;8.00;6.75
76101;PMS7003;64830;46.910;6.354;2023-02-23T07:55:41;12.00;11.00;7.00
76101;PMS7003;64830;46.910;6.354;2023-02-23T07:58:29;9.25;8.00;6.00
76101;PMS7003;64830;46.910;6.354;2023-02-23T08:01:01;8.00;6.50;4.00
76101;PMS7003;64830;46.910;6.354;2023-02-23T08:03:58;12.00;11.00;7.00
76101;PMS7003;64830;46.910;6.354;2023-02-23T08:06:39;10.50;10.25;8.00
76101;PMS7003;64830;46.910;6.354;2023-02-23T08:09:17;12.75;9.25;6.75
76101;PMS7003;64830;46.910;6.354;2023-02-23T08:12:05;10.25;9.00;7.00
76101;PMS7003;64830;46.910;6.354;2023-02-23T08:14:35;11.00;7.75;5.00
76101;PMS7003;64830;46.910;6.354;2023-02-23T08:17:21;9.50;7.50;6.25
76101;PMS7003;64830;46.910;6.354;2023-02-23T08:20:04;7.50;6.00;4.00
76101;PMS7003;64830;46.910;6.354;2023-02-23T08:22:35;4.25;4.00;3.50
76101;PMS7003;64830;46.910;6.354;2023-02-23T08:25:22;9.50;9.00;7.25
76101;PMS7003;64830;46.910;6.354;2023-02-23T08:28:03;7.50;7.50;6.00
76101;PMS7003;64830;46.910;6.354;2023-02-23T08:33:24;9.00;7.00;4.50
76101;PMS7003;64830;46.910;6.354;2023-02-23T08:35:57;5.50;5.50;5.00
76101;PMS7003;64830;46.910;6.354;2023-02-23T08:38:32;8.25;6.75;3.75
76101;PMS7003;64830;46.910;6.354;2023-02-23T08:41:03;7.00;4.25;4.00
76101;PMS7003;64830;46.910;6.354;2023-02-23T08:43:41;8.75;8.50;6.75
76101;PMS7003;64830;46.910;6.354;2023-02-23T08:46:09;10.00;8.00;4.75
76101;PMS7003;64830;46.910;6.354;2023-02-23T08:48:35;7.75;7.00;5.50
76101;PMS7003;64830;46.910;6.354;2023-02-23T08:51:03;5.50;5.50;4.00
76101;PMS7003;64830;46.910;6.354;2023-02-23T08:53:28;5.25;4.00;3.00
76101;PMS7003;64830;46.910;6.354;2023-02-23T08:55:56;3.25;3.00;2.75
76101;PMS7003;64830;46.910;6.354;2023-02-23T08:58:23;5.50;4.00;3.00
76101;PMS7003;64830;46.910;6.354;2023-02-23T09:00:48;4.75;4.00;3.00
76101;PMS7003;64830;46.910;6.354;2023-02-23T09:03:14;6.50;5.25;4.25
76101;PMS7003;64830;46.910;6.354;2023-02-23T09:05:39;7.75;5.00;3.75
76101;PMS7003;64830;46.910;6.354;2023-02-23T09:08:05;5.75;4.25;3.50
76101;PMS7003;64830;46.910;6.354;2023-02-23T09:10:31;7.75;7.25;5.00
76101;PMS7003;64830;46.910;6.354;2023-02-23T09:12:57;9.00;8.00;5.00
76101;PMS7003;64830;46.910;6.354;2023-02-23T09:15:23;6.25;5.75;4.00
76101;PMS7003;64830;46.910;6.354;2023-02-23T09:17:48;4.50;4.25;3.50
76101;PMS7003;64830;46.910;6.354;2023-02-23T09:20:14;5.00;5.00;3.00
76101;PMS7003;64830;46.910;6.354;2023-02-23T09:22:41;4.00;4.00;3.00
76101;PMS7003;64830;46.910;6.354;2023-02-23T09:25:12;5.75;3.75;3.50
76101;PMS7003;64830;46.910;6.354;2023-02-23T09:27:42;5.75;3.75;3.50
76101;PMS7003;64830;46.910;6.354;2023-02-23T09:30:08;8.00;5.00;4.00
76101;PMS7003;64830;46.910;6.354;2023-02-23T09:32:34;3.75;3.75;2.50
76101;PMS7003;64830;46.910;6.354;2023-02-23T09:35:00;6.25;5.25;4.00
76101;PMS7003;64830;46.910;6.354;2023-02-23T09:37:26;8.50;6.50;4.50
76101;PMS7003;64830;46.910;6.354;2023-02-23T09:39:51;4.00;4.00;3.75
76101;PMS7003;64830;46.910;6.354;2023-02-23T09:48:10;10.50;6.00;5.00
76101;PMS7003;64830;46.910;6.354;2023-02-23T09:50:37;5.25;3.50;3.25
76101;PMS7003;64830;46.910;6.354;2023-02-23T09:53:12;4.00;4.00;3.00
76101;PMS7003;64830;46.910;6.354;2023-02-23T09:55:50;4.50;4.00;3.00
76101;PMS7003;64830;46.910;6.354;2023-02-23T09:58:23;2.75;2.75;2.00
76101;PMS7003;64830;46.910;6.354;2023-02-23T10:00:54;5.50;4.50;3.00
76101;PMS7003;64830;46.910;6.354;2023-02-23T10:03:48;8.50;4.75;3.50
76101;PMS7003;64830;46.910;6.354;2023-02-23T10:06:20;6.50;4.75;3.00
76101;PMS7003;64830;46.910;6.354;2023-02-23T10:11:44;4.00;3.75;2.75
76101;PMS7003;64830;46.910;6.354;2023-02-23T10:22:23;4.00;4.00;2.50
76101;PMS7003;64830;46.910;6.354;2023-02-23T10:24:59;4.25;3.00;2.00
76101;PMS7003;64830;46.910;6.354;2023-02-23T10:30:27;4.75;3.00;3.00
76101;PMS7003;64830;46.910;6.354;2023-02-23T10:35:31;4.00;2.75;2.00
76101;PMS7003;64830;46.910;6.354;2023-02-23T10:37:58;3.00;3.00;2.00
76101;PMS7003;64830;46.910;6.354;2023-02-23T10:40:26;4.00;2.00;2.00
76101;PMS7003;64830;46.910;6.354;2023-02-23T10:42:54;2.50;2.50;2.00
76101;PMS7003;64830;46.910;6.354;2023-02-23T10:45:21;1.00;1.00;0.25
76101;PMS7003;64830;46.910;6.354;2023-02-23T10:47:52;2.00;0.50;0.50
76101;PMS7003;64830;46.910;6.354;2023-02-23T10:50:24;4.00;2.50;1.50
76101;PMS7003;64830;46.910;6.354;2023-02-23T10:52:59;1.00;1.00;1.00
76101;PMS7003;64830;46.910;6.354;2023-02-23T10:55:34;0.00;0.00;0.00
76101;PMS7003;64830;46.910;6.354;2023-02-23T10:58:00;4.50;1.75;1.50
76101;PMS7003;64830;46.910;6.354;2023-02-23T11:00:30;2.00;2.00;1.25
76101;PMS7003;64830;46.910;6.354;2023-02-23T11:02:58;2.00;2.00;1.00
76101;PMS7003;64830;46.910;6.354;2023-02-23T11:10:43;2.00;2.00;1.00
76101;PMS7003;64830;46.910;6.354;2023-02-23T11:13:22;3.75;3.50;2.75
76101;PMS7003;64830;46.910;6.354;2023-02-23T11:15:56;4.25;2.25;1.00
76101;PMS7003;64830;46.910;6.354;2023-02-23T11:18:27;3.50;3.00;2.25
76101;PMS7003;64830;46.910;6.354;2023-02-23T11:20:53;1.50;1.50;1.00
76101;PMS7003;64830;46.910;6.354;2023-02-23T11:23:23;1.75;1.75;1.00
76101;PMS7003;64830;46.910;6.354;2023-02-23T11:26:01;1.00;1.00;1.00
76101;PMS7003;64830;46.910;6.354;2023-02-23T11:28:33;3.00;3.00;2.00
76101;PMS7003;64830;46.910;6.354;2023-02-23T11:31:02;5.50;3.00;2.00
76101;PMS7003;64830;46.910;6.354;2023-02-23T11:33:37;4.75;2.75;1.50
76101;PMS7003;64830;46.910;6.354;2023-02-23T11:36:14;1.25;1.00;0.75
76101;PMS7003;64830;46.910;6.354;2023-02-23T11:44:36;5.00;1.00;1.00
76101;PMS7003;64830;46.910;6.354;2023-02-23T11:47:02;3.25;3.25;2.00
76101;PMS7003;64830;46.910;6.354;2023-02-23T11:49:31;2.00;2.00;1.00
76101;PMS7003;64830;46.910;6.354;2023-02-23T11:52:00;3.00;2.00;1.25
76101;PMS7003;64830;46.910;6.354;2023-02-23T11:56:57;3.75;2.75;2.00
76101;PMS7003;64830;46.910;6.354;2023-02-23T11:59:30;3.00;3.00;2.00
76101;PMS7003;64830;46.910;6.354;2023-02-23T12:04:47;2.50;2.25;2.00
76101;PMS7003;64830;46.910;6.354;2023-02-23T12:10:10;2.75;2.75;2.00
76101;PMS7003;64830;46.910;6.354;2023-02-23T12:12:48;2.50;1.75;1.50
76101;PMS7003;64830;46.910;6.354;2023-02-23T12:20:53;2.00;2.00;1.75
76101;PMS7003;64830;46.910;6.354;2023-02-23T12:23:23;3.75;2.25;2.00
76101;PMS7003;64830;46.910;6.354;2023-02-23T12:25:55;5.50;4.00;2.75
76101;PMS7003;64830;46.910;6.354;2023-02-23T12:28:32;2.00;2.00;1.00
76101;PMS7003;64830;46.910;6.354;2023-02-23T12:33:31;3.75;3.75;3.00
76101;PMS7003;64830;46.910;6.354;2023-02-23T12:36:02;3.75;3.00;2.00
76101;PMS7003;64830;46.910;6.354;2023-02-23T12:44:31;5.25;5.00;3.00
76101;PMS7003;64830;46.910;6.354;2023-02-23T12:47:21;3.00;3.00;2.25
76101;PMS7003;64830;46.910;6.354;2023-02-23T12:49:57;5.00;5.00;4.25
76101;PMS7003;64830;46.910;6.354;2023-02-23T12:52:42;6.00;6.00;4.00
76101;PMS7003;64830;46.910;6.354;2023-02-23T12:55:13;5.00;5.00;4.00
76101;PMS7003;64830;46.910;6.354;2023-02-23T13:11:38;5.25;5.25;5.00
76101;PMS7003;64830;46.910;6.354;2023-02-23T13:14:30;5.25;4.50;3.50
76101;PMS7003;64830;46.910;6.354;2023-02-23T13:20:19;5.00;4.00;3.00
76101;PMS7003;64830;46.910;6.354;2023-02-23T13:25:56;6.50;5.00;4.50
76101;PMS7003;64830;46.910;6.354;2023-02-23T13:31:16;8.50;5.50;4.25
76101;PMS7003;64830;46.910;6.354;2023-02-23T13:33:47;5.75;5.75;4.00
76101;PMS7003;64830;46.910;6.354;2023-02-23T13:36:13;2.75;2.00;2.00
76101;PMS7003;64830;46.910;6.354;2023-02-23T13:43:53;5.50;4.75;2.50
76101;PMS7003;64830;46.910;6.354;2023-02-23T13:49:19;5.25;5.00;4.00
76101;PMS7003;64830;46.910;6.354;2023-02-23T13:54:56;5.50;5.50;4.25
76101;PMS7003;64830;46.910;6.354;2023-02-23T13:57:28;8.25;7.25;5.25
76101;PMS7003;64830;46.910;6.354;2023-02-23T13:59:55;5.00;5.00;4.00
76101;PMS7003;64830;46.910;6.354;2023-02-23T14:05:00;11.25;6.75;5.00
76101;PMS7003;64830;46.910;6.354;2023-02-23T14:07:29;8.50;7.25;4.00
76101;PMS7003;64830;46.910;6.354;2023-02-23T14:09:57;12.75;9.75;7.75
76101;PMS7003;64830;46.910;6.354;2023-02-23T14:12:38;9.50;6.00;4.75
76101;PMS7003;64830;46.910;6.354;2023-02-23T14:18:02;2.00;2.00;2.00
76101;PMS7003;64830;46.910;6.354;2023-02-23T14:24:09;8.25;6.00;5.00
76101;PMS7003;64830;46.910;6.354;2023-02-23T14:26:42;9.50;8.00;6.00
76101;PMS7003;64830;46.910;6.354;2023-02-23T14:31:35;5.25;4.25;3.50
76101;PMS7003;64830;46.910;6.354;2023-02-23T14:34:08;11.25;8.25;6.00
76101;PMS7003;64830;46.910;6.354;2023-02-23T14:36:40;7.50;5.50;4.25
76101;PMS7003;64830;46.910;6.354;2023-02-23T14:39:09;4.25;4.00;3.00
76101;PMS7003;64830;46.910;6.354;2023-02-23T14:41:46;7.00;4.75;4.00
76101;PMS7003;64830;46.910;6.354;2023-02-23T14:49:42;3.00;3.00;3.00
76101;PMS7003;64830;46.910;6.354;2023-02-23T14:54:43;9.00;6.50;4.00
76101;PMS7003;64830;46.910;6.354;2023-02-23T14:57:23;9.00;7.00;6.00
76101;PMS7003;64830;46.910;6.354;2023-02-23T14:59:51;8.25;8.00;5.00
76101;PMS7003;64830;46.910;6.354;2023-02-23T15:02:25;6.00;4.75;4.00
76101;PMS7003;64830;46.910;6.354;2023-02-23T15:04:52;9.50;7.25;5.00
76101;PMS7003;64830;46.910;6.354;2023-02-23T15:07:20;7.00;5.25;5.25
76101;PMS7003;64830;46.910;6.354;2023-02-23T15:09:55;9.25;8.00;6.00
76101;PMS7003;64830;46.910;6.354;2023-02-23T15:12:24;11.00;9.25;6.00
76101;PMS7003;64830;46.910;6.354;2023-02-23T15:14:56;4.00;4.00;3.00
76101;PMS7003;64830;46.910;6.354;2023-02-23T15:17:26;3.00;3.00;2.50
76101;PMS7003;64830;46.910;6.354;2023-02-23T15:19:57;3.00;3.00;2.00
76101;PMS7003;64830;46.910;6.354;2023-02-23T15:22:26;8.25;4.00;3.50
76101;PMS7003;64830;46.910;6.354;2023-02-23T15:24:56;5.00;3.50;3.00
76101;PMS7003;64830;46.910;6.354;2023-02-23T15:27:27;6.75;5.25;3.25
76101;PMS7003;64830;46.910;6.354;2023-02-23T15:29:55;4.75;4.00;4.00
76101;PMS7003;64830;46.910;6.354;2023-02-23T15:32:21;9.25;5.00;4.00
76101;PMS7003;64830;46.910;6.354;2023-02-23T15:34:52;4.00;4.00;3.00
76101;PMS7003;64830;46.910;6.354;2023-02-23T15:37:25;6.00;5.50;4.25
76101;PMS7003;64830;46.910;6.354;2023-02-23T15:40:12;8.00;6.75;4.00
76101;PMS7003;64830;46.910;6.354;2023-02-23T15:42:44;7.25;5.50;3.50
76101;PMS7003;64830;46.910;6.354;2023-02-23T15:47:54;4.50;4.50;3.75
76101;PMS7003;64830;46.910;6.354;2023-02-23T15:50:24;5.75;5.75;4.25
76101;PMS7003;64830;46.910;6.354;2023-02-23T15:52:56;8.00;7.75;5.00
76101;PMS7003;64830;46.910;6.354;2023-02-23T15:55:28;7.00;6.75;5.00
76101;PMS7003;64830;46.910;6.354;2023-02-23T15:57:59;26.75;25.00;15.50
76101;PMS7003;64830;46.910;6.354;2023-02-23T16:00:37;17.75;13.75;10.00
76101;PMS7003;64830;46.910;6.354;2023-02-23T16:03:05;20.25;20.00;14.00
76101;PMS7003;64830;46.910;6.354;2023-02-23T16:05:32;14.50;12.25;8.00
76101;PMS7003;64830;46.910;6.354;2023-02-23T16:08:14;12.00;9.50;7.25
76101;PMS7003;64830;46.910;6.354;2023-02-23T16:10:47;11.00;9.00;5.00
76101;PMS7003;64830;46.910;6.354;2023-02-23T16:13:16;7.50;7.50;5.00
76101;PMS7003;64830;46.910;6.354;2023-02-23T16:15:45;7.75;7.50;4.25
76101;PMS7003;64830;46.910;6.354;2023-02-23T16:18:15;8.25;6.25;4.25
76101;PMS7003;64830;46.910;6.354;2023-02-23T16:20:50;10.25;7.75;5.00
76101;PMS7003;64830;46.910;6.354;2023-02-23T16:23:23;18.25;16.00;13.00
76101;PMS7003;64830;46.910;6.354;2023-02-23T16:25:57;20.00;17.00;12.75
76101;PMS7003;64830;46.910;6.354;2023-02-23T16:28:26;7.50;7.50;6.25
76101;PMS7003;64830;46.910;6.354;2023-02-23T16:31:02;9.25;9.25;6.50
76101;PMS7003;64830;46.910;6.354;2023-02-23T16:33:29;16.00;10.00;8.00
76101;PMS7003;64830;46.910;6.354;2023-02-23T16:41:04;14.25;11.25;9.00
76101;PMS7003;64830;46.910;6.354;2023-02-23T16:43:34;13.75;13.00;9.00
76101;PMS7003;64830;46.910;6.354;2023-02-23T16:45:59;13.75;10.25;8.50
76101;PMS7003;64830;46.910;6.354;2023-02-23T16:48:26;16.00;15.50;11.25
76101;PMS7003;64830;46.910;6.354;2023-02-23T16:50:51;18.00;14.25;11.00
76101;PMS7003;64830;46.910;6.354;2023-02-23T16:53:16;15.50;13.50;9.50
76101;PMS7003;64830;46.910;6.354;2023-02-23T16:55:45;11.50;9.00;8.00
76101;PMS7003;64830;46.910;6.354;2023-02-23T16:58:15;12.25;9.50;8.00
76101;PMS7003;64830;46.910;6.354;2023-02-23T17:00:42;15.25;14.50;10.25
76101;PMS7003;64830;46.910;6.354;2023-02-23T17:03:13;15.50;14.00;9.00
76101;PMS7003;64830;46.910;6.354;2023-02-23T17:05:41;15.75;15.00;10.50
76101;PMS7003;64830;46.910;6.354;2023-02-23T17:08:06;17.50;13.00;11.25
76101;PMS7003;64830;46.910;6.354;2023-02-23T17:10:34;14.25;10.75;9.25
76101;PMS7003;64830;46.910;6.354;2023-02-23T17:13:01;13.00;8.75;7.75
76101;PMS7003;64830;46.910;6.354;2023-02-23T17:15:30;14.50;11.50;8.00
76101;PMS7003;64830;46.910;6.354;2023-02-23T17:17:59;10.25;10.25;8.50
76101;PMS7003;64830;46.910;6.354;2023-02-23T17:20:25;14.00;11.25;8.00
76101;PMS7003;64830;46.910;6.354;2023-02-23T17:22:51;10.50;10.50;9.00
76101;PMS7003;64830;46.910;6.354;2023-02-23T17:25:21;16.50;13.75;9.50
76101;PMS7003;64830;46.910;6.354;2023-02-23T17:27:57;20.50;15.25;11.25
76101;PMS7003;64830;46.910;6.354;2023-02-23T17:30:23;14.75;14.50;11.25
76101;PMS7003;64830;46.910;6.354;2023-02-23T17:32:53;18.00;16.25;9.25
76101;PMS7003;64830;46.910;6.354;2023-02-23T17:35:20;13.75;10.00;8.00
76101;PMS7003;64830;46.910;6.354;2023-02-23T17:37:46;11.75;10.00;8.00
76101;PMS7003;64830;46.910;6.354;2023-02-23T17:40:13;10.00;9.50;7.25
76101;PMS7003;64830;46.910;6.354;2023-02-23T17:43:01;11.75;11.75;7.00
76101;PMS7003;64830;46.910;6.354;2023-02-23T17:45:30;15.25;15.25;10.00
76101;PMS7003;64830;46.910;6.354;2023-02-23T17:47:56;14.00;14.00;9.75
76101;PMS7003;64830;46.910;6.354;2023-02-23T17:50:22;15.50;13.50;11.00
76101;PMS7003;64830;46.910;6.354;2023-02-23T17:52:50;16.25;16.25;12.75
76101;PMS7003;64830;46.910;6.354;2023-02-23T17:55:17;10.00;10.00;7.50
76101;PMS7003;64830;46.910;6.354;2023-02-23T17:57:44;17.50;14.00;9.00
76101;PMS7003;64830;46.910;6.354;2023-02-23T18:00:10;16.75;15.00;10.00
76101;PMS7003;64830;46.910;6.354;2023-02-23T18:02:38;14.75;14.75;11.25
76101;PMS7003;64830;46.910;6.354;2023-02-23T18:05:04;17.00;15.25;12.00
76101;PMS7003;64830;46.910;6.354;2023-02-23T18:07:30;14.00;11.25;8.25
76101;PMS7003;64830;46.910;6.354;2023-02-23T18:09:55;17.25;13.50;10.00
76101;PMS7003;64830;46.910;6.354;2023-02-23T18:12:21;14.50;13.00;8.75
76101;PMS7003;64830;46.910;6.354;2023-02-23T18:14:46;14.00;13.00;8.00
76101;PMS7003;64830;46.910;6.354;2023-02-23T18:17:12;10.25;9.00;6.50
76101;PMS7003;64830;46.910;6.354;2023-02-23T18:19:39;12.00;9.25;7.00
76101;PMS7003;64830;46.910;6.354;2023-02-23T18:22:05;10.00;9.25;6.25
76101;PMS7003;64830;46.910;6.354;2023-02-23T18:24:31;14.00;11.75;8.25
76101;PMS7003;64830;46.910;6.354;2023-02-23T18:26:57;8.25;7.75;7.00
76101;PMS7003;64830;46.910;6.354;2023-02-23T18:29:26;12.00;11.00;7.00
76101;PMS7003;64830;46.910;6.354;2023-02-23T18:31:56;14.00;13.00;9.25
76101;PMS7003;64830;46.910;6.354;2023-02-23T18:34:23;9.25;8.75;6.75
76101;PMS7003;64830;46.910;6.354;2023-02-23T18:36:50;10.25;10.25;8.75